CheckWX is a tool to help pilots better visualize weather data.  It is not intended as a substitute for an official pre-flight weather briefing.

06:36:13 UTC

3I2 METAR
Mason County Airport
Point Pleasant, West Virginia, USA
Current

21 mins ago

K3I2 260615Z AUTO 00000KT 10SM SCT010 SCT024 BKN031 10/09 A2987 RMK AO2 T00950091
Observed
Feb-26 @ 06:15 UTC
Visibility
10 SM
Flight Rules
VFR
Cloud Levels
  • Scattered at 1,000' AGL
  • Scattered at 2,400' AGL
  • Broken at 3,100' AGL
Temperature
10°C / 50°F
Dewpoint
C / 48°F
Humidity
94%
Altimeter
29.87" Hg
Pressure
1011.52 hPa
Previous

41 mins ago

K3I2 260555Z AUTO 00000KT 10SM SCT008 BKN013 OVC031 10/10 A2987 RMK AO2 T01010095 10113 20097 401420065
Observed
Feb-26 @ 05:55 UTC
Visibility
10 SM
Flight Rules
MVFR
Cloud Levels
  • Scattered at 800' AGL
  • Broken at 1,300' AGL
  • Overcast at 3,100' AGL
Temperature
10°C / 50°F
Dewpoint
10°C / 50°F
Humidity
100%
Altimeter
29.87" Hg
Pressure
1011.52 hPa
Previous

1 hour ago

K3I2 260535Z AUTO 00000KT 10SM SCT008 BKN013 OVC031 11/10 A2987 RMK AO2 T01050095
Observed
Feb-26 @ 05:35 UTC
Visibility
10 SM
Flight Rules
MVFR
Cloud Levels
  • Scattered at 800' AGL
  • Broken at 1,300' AGL
  • Overcast at 3,100' AGL
Temperature
11°C / 52°F
Dewpoint
10°C / 50°F
Humidity
94%
Altimeter
29.87" Hg
Pressure
1011.52 hPa